createdAt,value
2023-04-19T00:00:46.984Z,28.73
2023-04-19T00:03:15.710Z,28.76
2023-04-19T00:05:44.223Z,28.80
2023-04-19T00:08:12.716Z,28.83
2023-04-19T00:10:41.144Z,28.87
2023-04-19T00:13:09.526Z,28.92
2023-04-19T00:15:39.238Z,28.99
2023-04-19T00:18:08.362Z,29.04
2023-04-19T00:20:37.276Z,29.09
2023-04-19T00:23:05.707Z,29.13
2023-04-19T00:25:35.540Z,29.17
2023-04-19T00:28:04.819Z,29.21
2023-04-19T00:30:33.264Z,29.28
2023-04-19T00:33:03.141Z,29.32
2023-04-19T00:35:31.570Z,29.37
2023-04-19T00:37:59.948Z,29.41
2023-04-19T00:40:28.753Z,29.47
2023-04-19T00:42:57.124Z,29.52
2023-04-19T00:45:26.646Z,29.59
2023-04-19T00:47:55.598Z,29.64
2023-04-19T00:50:24.464Z,29.69
2023-04-19T00:52:55.211Z,29.75
2023-04-19T00:55:25.079Z,29.79
2023-04-19T00:57:53.454Z,29.86
2023-04-19T01:00:21.924Z,29.90
2023-04-19T01:02:50.349Z,29.96
2023-04-19T01:05:19.135Z,30.00
2023-04-19T01:07:47.495Z,30.05
2023-04-19T01:10:16.529Z,30.10
2023-04-19T01:12:45.210Z,30.17
2023-04-19T01:15:13.630Z,30.22
2023-04-19T01:17:43.254Z,30.27
2023-04-19T01:20:12.585Z,30.31
2023-04-19T01:22:41.221Z,30.35
2023-04-19T01:25:09.935Z,30.41
2023-04-19T01:27:38.326Z,30.45
2023-04-19T01:30:07.375Z,30.52
2023-04-19T01:32:35.811Z,30.58
2023-04-19T01:35:04.503Z,30.61
2023-04-19T01:37:36.145Z,30.65
2023-04-19T01:40:08.085Z,30.71
2023-04-19T01:42:36.540Z,30.76
2023-04-19T01:45:05.342Z,30.83
2023-04-19T01:47:33.723Z,30.88
2023-04-19T01:50:02.150Z,30.92
2023-04-19T01:52:30.515Z,30.99
2023-04-19T01:54:58.867Z,31.05
2023-04-19T01:57:27.246Z,31.11
2023-04-19T01:59:55.868Z,31.17
2023-04-19T02:02:24.461Z,31.21
2023-04-19T02:04:53.081Z,31.27
2023-04-19T02:07:21.588Z,31.33
2023-04-19T02:09:49.921Z,31.39
2023-04-19T02:12:18.295Z,31.45
2023-04-19T02:14:46.679Z,31.51
2023-04-19T02:17:14.994Z,31.57
2023-04-19T02:19:43.385Z,31.64
2023-04-19T02:22:11.963Z,31.71
2023-04-19T02:24:40.338Z,31.80
2023-04-19T02:27:08.725Z,31.88
2023-04-19T02:29:37.157Z,31.96
2023-04-19T02:32:07.195Z,32.05
2023-04-19T02:34:36.151Z,32.10
2023-04-19T02:37:04.592Z,32.19
2023-04-19T02:39:33.220Z,32.25
2023-04-19T02:42:02.348Z,32.31
2023-04-19T02:44:30.730Z,32.37
2023-04-19T02:46:59.091Z,32.43
2023-04-19T02:49:27.475Z,32.49
2023-04-19T02:51:55.787Z,32.53
2023-04-19T02:54:24.142Z,32.60
2023-04-19T02:56:52.477Z,32.67
2023-04-19T02:59:20.875Z,32.74
2023-04-19T03:01:49.228Z,32.82
2023-04-19T03:04:18.310Z,32.88
2023-04-19T03:06:46.918Z,32.95
2023-04-19T03:09:15.255Z,33.01
2023-04-19T03:11:43.963Z,33.10
2023-04-19T03:14:12.325Z,33.15
2023-04-19T03:16:40.720Z,33.23
2023-04-19T03:19:09.226Z,33.30
2023-04-19T03:21:37.584Z,33.36
2023-04-19T03:24:06.241Z,33.45
2023-04-19T03:26:34.640Z,33.52
2023-04-19T03:29:03.162Z,33.58
2023-04-19T03:31:31.804Z,33.64
2023-04-19T03:34:00.170Z,33.70
2023-04-19T03:36:28.548Z,33.76
2023-04-19T03:38:56.916Z,33.85
2023-04-19T03:41:27.578Z,33.92
2023-04-19T03:43:56.157Z,33.99
2023-04-19T03:46:24.642Z,34.07
2023-04-19T03:48:54.150Z,34.15
2023-04-19T03:51:22.481Z,34.21
2023-04-19T03:53:50.823Z,34.29
2023-04-19T03:56:19.223Z,34.38
2023-04-19T03:58:47.936Z,34.46
2023-04-19T04:01:20.879Z,34.53
2023-04-19T04:03:50.123Z,34.59
2023-04-19T04:06:18.792Z,34.65
2023-04-19T04:08:47.257Z,34.70
2023-04-19T04:11:15.734Z,34.78
2023-04-19T04:13:44.209Z,34.85
2023-04-19T04:16:12.599Z,34.92
2023-04-19T04:18:41.035Z,35.03
2023-04-19T04:21:09.468Z,35.12
2023-04-19T04:23:38.864Z,35.19
2023-04-19T04:26:10.792Z,35.26
2023-04-19T04:28:39.192Z,35.34
2023-04-19T04:31:07.647Z,35.43
2023-04-19T04:33:36.023Z,35.52
2023-04-19T04:36:04.649Z,35.60
2023-04-19T04:38:33.173Z,35.69
2023-04-19T04:41:01.508Z,35.78
2023-04-19T04:43:30.782Z,35.84
2023-04-19T04:45:59.374Z,35.90
2023-04-19T04:48:27.849Z,35.99
2023-04-19T04:50:56.302Z,36.08
2023-04-19T04:53:28.110Z,36.18
2023-04-19T04:55:56.548Z,36.26
2023-04-19T04:58:24.926Z,36.31
2023-04-19T05:00:53.437Z,36.35
2023-04-19T05:03:21.946Z,36.40
2023-04-19T05:05:50.448Z,36.46
2023-04-19T05:08:18.791Z,36.51
2023-04-19T05:10:47.163Z,36.57
2023-04-19T05:13:15.546Z,36.63
2023-04-19T05:15:43.930Z,36.71
2023-04-19T05:18:12.297Z,36.77
2023-04-19T05:20:40.662Z,36.85
2023-04-19T05:23:09.157Z,36.92
2023-04-19T05:25:37.624Z,37.01
2023-04-19T05:28:06.653Z,37.07
2023-04-19T05:30:35.064Z,37.12
2023-04-19T05:33:07.216Z,37.22
2023-04-19T05:35:35.614Z,37.28
2023-04-19T05:38:04.423Z,37.32
2023-04-19T05:40:33.166Z,37.40
2023-04-19T05:43:01.508Z,37.43
2023-04-19T05:45:29.972Z,37.48
2023-04-19T05:47:58.373Z,37.51
2023-04-19T05:50:26.833Z,37.57
2023-04-19T05:52:55.211Z,37.57
2023-04-19T05:55:23.592Z,37.61
2023-04-19T05:57:52.257Z,37.64
2023-04-19T06:00:20.827Z,37.66
2023-04-19T06:02:49.621Z,37.67
2023-04-19T06:05:18.207Z,37.72
2023-04-19T06:07:54.499Z,37.77
2023-04-19T06:10:36.749Z,37.84
2023-04-19T06:13:16.592Z,37.92
2023-04-19T06:15:45.023Z,37.97
2023-04-19T06:18:19.332Z,38.01
2023-04-19T06:20:48.798Z,38.03
2023-04-19T06:23:19.220Z,38.09
2023-04-19T06:25:51.391Z,38.14
2023-04-19T06:28:20.539Z,38.19
2023-04-19T06:30:49.741Z,38.22
2023-04-19T06:33:18.312Z,38.26
2023-04-19T06:35:46.940Z,38.28
2023-04-19T06:38:15.572Z,38.32
2023-04-19T06:40:44.307Z,38.28
2023-04-19T06:43:13.005Z,38.20
2023-04-19T06:45:41.664Z,38.18
2023-04-19T06:48:10.504Z,38.17
2023-04-19T06:50:39.200Z,38.19
2023-04-19T06:53:07.855Z,38.22
2023-04-19T06:55:36.563Z,38.25
2023-04-19T06:58:05.397Z,38.24
2023-04-19T07:00:34.110Z,38.18
2023-04-19T07:03:02.985Z,38.15
2023-04-19T07:05:33.101Z,38.12
2023-04-19T07:08:01.885Z,38.10
2023-04-19T07:10:30.793Z,38.09
2023-04-19T07:12:59.418Z,37.98
2023-04-19T07:15:28.332Z,37.86
2023-04-19T07:17:57.044Z,37.79
2023-04-19T07:20:25.921Z,37.64
2023-04-19T07:22:54.603Z,37.58
2023-04-19T07:25:23.682Z,37.61
2023-04-19T07:27:55.619Z,37.66
2023-04-19T07:30:24.931Z,37.73
2023-04-19T07:32:54.737Z,37.74
2023-04-19T07:35:24.118Z,37.73
2023-04-19T07:37:52.820Z,37.74
2023-04-19T07:40:21.643Z,37.76
2023-04-19T07:42:50.393Z,37.79
2023-04-19T07:45:19.204Z,37.82
2023-04-19T07:47:47.901Z,37.86
2023-04-19T07:50:17.176Z,37.87
2023-04-19T07:52:45.937Z,37.88
2023-04-19T07:55:14.679Z,37.87
2023-04-19T07:57:47.279Z,37.82
2023-04-19T08:00:20.041Z,37.71
2023-04-19T08:02:50.065Z,37.61
2023-04-19T08:05:19.615Z,37.57
2023-04-19T08:07:48.387Z,37.53
2023-04-19T08:10:17.418Z,37.55
2023-04-19T08:12:57.372Z,37.54
2023-04-19T08:18:06.305Z,37.51
2023-04-19T08:20:35.585Z,37.49
2023-04-19T08:23:18.121Z,37.47
2023-04-19T08:25:50.125Z,37.43
2023-04-19T08:28:19.732Z,37.41
2023-04-19T08:30:48.452Z,37.39
2023-04-19T08:33:17.563Z,37.37
2023-04-19T08:35:47.074Z,37.35
2023-04-19T08:38:15.811Z,37.34
2023-04-19T08:40:56.318Z,37.33
2023-04-19T08:43:29.796Z,37.32
2023-04-19T08:46:00.091Z,37.31
2023-04-19T08:48:29.778Z,37.28
2023-04-19T08:51:05.553Z,37.26
2023-04-19T08:53:38.414Z,37.24
2023-04-19T08:56:18.006Z,37.22
2023-04-19T09:04:01.127Z,37.11
2023-04-19T09:06:38.790Z,37.07
2023-04-19T09:09:33.956Z,37.02
2023-04-19T09:12:20.995Z,37.01
2023-04-19T09:15:01.176Z,36.96
2023-04-19T09:17:31.605Z,36.95
2023-04-19T09:20:00.695Z,36.91
2023-04-19T09:22:29.456Z,36.88
2023-04-19T09:27:35.393Z,36.82
2023-04-19T09:30:06.217Z,36.81
2023-04-19T09:33:01.272Z,36.80
2023-04-19T09:35:50.577Z,36.77
2023-04-19T09:38:19.366Z,36.73
2023-04-19T09:40:48.747Z,36.66
2023-04-19T09:43:57.525Z,36.63
2023-04-19T09:46:53.609Z,36.55
2023-04-19T09:49:37.598Z,36.47
2023-04-19T09:52:16.479Z,36.38
2023-04-19T09:54:47.192Z,36.33
2023-04-19T09:57:17.069Z,36.29
2023-04-19T09:59:45.748Z,36.25
2023-04-19T10:02:16.294Z,36.22
2023-04-19T10:07:30.263Z,36.16
2023-04-19T10:10:16.043Z,36.11
2023-04-19T10:15:24.931Z,36.00
2023-04-19T10:17:54.155Z,35.98
2023-04-19T10:20:28.575Z,35.94
2023-04-19T10:22:57.710Z,35.89
2023-04-19T10:25:32.967Z,35.84
2023-04-19T10:28:01.730Z,35.79
2023-04-19T10:30:30.599Z,35.72
2023-04-19T10:33:05.046Z,35.66
2023-04-19T10:35:39.754Z,35.60
2023-04-19T10:38:13.806Z,35.54
2023-04-19T10:40:57.609Z,35.46
2023-04-19T10:43:30.875Z,35.39
2023-04-19T10:46:04.351Z,35.31
2023-04-19T10:48:39.757Z,35.22
2023-04-19T10:51:16.843Z,35.16
2023-04-19T10:53:48.157Z,35.07
2023-04-19T10:56:37.982Z,34.96
2023-04-19T10:59:09.226Z,34.84
2023-04-19T11:01:47.670Z,34.74
2023-04-19T11:04:21.765Z,34.65
2023-04-19T11:06:53.849Z,34.60
2023-04-19T11:09:32.479Z,34.52
2023-04-19T11:12:03.327Z,34.46
2023-04-19T11:14:34.200Z,34.39
2023-04-19T11:17:15.958Z,34.33
2023-04-19T11:19:55.725Z,34.26
2023-04-19T11:22:41.673Z,34.21
2023-04-19T11:25:22.944Z,34.16
2023-04-19T11:27:54.170Z,34.10
2023-04-19T11:30:30.801Z,34.04
2023-04-19T11:33:00.218Z,33.99
2023-04-19T11:35:31.690Z,33.95
2023-04-19T11:38:01.608Z,33.93
2023-04-19T11:40:30.376Z,33.91
2023-04-19T11:43:04.286Z,33.86
2023-04-19T11:45:39.763Z,33.82
2023-04-19T11:48:19.087Z,33.78
2023-04-19T11:50:50.595Z,33.76
2023-04-19T11:53:22.618Z,33.76
2023-04-19T11:55:53.751Z,33.74
2023-04-19T11:58:38.242Z,33.71
2023-04-19T12:01:15.344Z,33.69
2023-04-19T12:04:02.675Z,33.66
2023-04-19T12:06:33.163Z,33.62
2023-04-19T12:09:02.048Z,33.56
2023-04-19T12:11:50.100Z,33.54
2023-04-19T12:14:22.524Z,33.50
2023-04-19T12:17:12.019Z,33.47
2023-04-19T12:19:47.161Z,33.44
2023-04-19T12:22:20.747Z,33.41
2023-04-19T12:24:52.513Z,33.37
2023-04-19T12:27:21.714Z,33.33
2023-04-19T12:29:50.626Z,33.29
2023-04-19T12:32:19.287Z,33.25
2023-04-19T12:34:48.435Z,33.21
2023-04-19T12:37:17.118Z,33.18
2023-04-19T12:39:45.748Z,33.15
2023-04-19T12:42:14.458Z,33.13
2023-04-19T12:44:43.147Z,33.10
2023-04-19T12:47:11.797Z,33.08
2023-04-19T12:49:40.457Z,33.04
2023-04-19T12:52:09.700Z,33.01
2023-04-19T12:54:38.363Z,32.99
2023-04-19T12:57:07.035Z,32.96
2023-04-19T12:59:35.718Z,32.95
2023-04-19T13:02:04.733Z,32.94
2023-04-19T13:04:33.549Z,32.93
2023-04-19T13:07:02.473Z,32.90
2023-04-19T13:09:31.659Z,32.87
2023-04-19T13:12:00.673Z,32.85
2023-04-19T13:14:30.144Z,32.82
2023-04-19T13:16:58.982Z,32.79
2023-04-19T13:19:28.434Z,32.77
2023-04-19T13:21:57.081Z,32.73
2023-04-19T13:24:25.944Z,32.70
2023-04-19T13:26:54.779Z,32.67
2023-04-19T13:29:23.872Z,32.65
2023-04-19T13:31:52.772Z,32.63
2023-04-19T13:34:22.198Z,32.60
2023-04-19T13:36:51.269Z,32.59
2023-04-19T13:39:20.128Z,32.57
2023-04-19T13:41:48.943Z,32.57
2023-04-19T13:44:18.194Z,32.57
2023-04-19T13:46:47.306Z,32.57
2023-04-19T13:49:15.979Z,32.58
2023-04-19T13:51:50.230Z,32.60
2023-04-19T13:54:21.002Z,32.62
2023-04-19T13:56:52.150Z,32.64
2023-04-19T13:59:22.807Z,32.65
2023-04-19T14:01:51.867Z,32.67
2023-04-19T14:04:21.503Z,32.71
2023-04-19T14:06:50.891Z,32.77
2023-04-19T14:09:19.652Z,32.84
2023-04-19T14:11:49.894Z,32.89
2023-04-19T14:14:19.016Z,32.94
2023-04-19T14:16:47.936Z,32.99
2023-04-19T14:19:16.736Z,33.00
2023-04-19T14:21:45.446Z,33.00
2023-04-19T14:24:14.470Z,33.00
2023-04-19T14:26:43.489Z,33.01
2023-04-19T14:29:12.685Z,33.00
2023-04-19T14:31:41.445Z,32.99
2023-04-19T14:34:10.284Z,32.98
2023-04-19T14:36:38.904Z,32.96
2023-04-19T14:39:07.994Z,32.93
2023-04-19T14:41:36.846Z,32.93
2023-04-19T14:44:05.517Z,32.92
2023-04-19T14:46:34.265Z,32.92
2023-04-19T14:49:08.951Z,32.92
2023-04-19T14:51:37.939Z,32.91
2023-04-19T14:54:06.779Z,32.91
2023-04-19T14:56:35.573Z,32.87
2023-04-19T14:59:04.508Z,32.85
2023-04-19T15:01:34.216Z,32.83
2023-04-19T15:04:03.312Z,32.79
2023-04-19T15:06:32.919Z,32.76
2023-04-19T15:09:01.695Z,32.71
2023-04-19T15:11:30.581Z,32.68
2023-04-19T15:13:59.275Z,32.64
2023-04-19T15:16:28.082Z,32.59
2023-04-19T15:18:56.972Z,32.55
2023-04-19T15:21:25.688Z,32.50
2023-04-19T15:23:54.485Z,32.46
2023-04-19T15:26:24.818Z,32.40
2023-04-19T15:28:53.465Z,32.37
2023-04-19T15:31:22.295Z,32.34
2023-04-19T15:33:51.325Z,32.30
2023-04-19T15:36:20.149Z,32.26
2023-04-19T15:38:48.979Z,32.24
2023-04-19T15:41:18.865Z,32.23
2023-04-19T15:43:47.616Z,32.21
2023-04-19T15:46:17.024Z,32.19
2023-04-19T15:48:47.899Z,32.19
2023-04-19T15:51:17.109Z,32.17
2023-04-19T15:53:46.554Z,32.15
2023-04-19T15:56:15.333Z,32.13
2023-04-19T15:58:44.258Z,32.11
2023-04-19T16:01:14.931Z,32.09
2023-04-19T16:03:46.166Z,32.08
2023-04-19T16:06:14.996Z,32.06
2023-04-19T16:08:43.779Z,32.04
2023-04-19T16:11:12.490Z,32.04
2023-04-19T16:13:41.153Z,32.03
2023-04-19T16:16:09.863Z,32.01
2023-04-19T16:18:38.545Z,31.98
2023-04-19T16:21:07.599Z,31.97
2023-04-19T16:23:36.303Z,31.93
2023-04-19T16:26:05.112Z,31.90
2023-04-19T16:28:33.720Z,31.88
2023-04-19T16:31:02.311Z,31.85
2023-04-19T16:33:31.077Z,31.83
2023-04-19T16:35:59.748Z,31.80
2023-04-19T16:38:28.461Z,31.80
2023-04-19T16:40:57.258Z,31.79
2023-04-19T16:43:25.941Z,31.76
2023-04-19T16:45:54.568Z,31.75
2023-04-19T16:48:23.452Z,31.73
2023-04-19T16:50:52.938Z,31.70
2023-04-19T16:53:22.117Z,31.70
2023-04-19T16:55:50.823Z,31.67
2023-04-19T16:58:19.403Z,31.66
2023-04-19T17:00:49.407Z,31.66
2023-04-19T17:03:18.174Z,31.65
2023-04-19T17:05:47.080Z,31.65
2023-04-19T17:08:15.933Z,31.65
2023-04-19T17:10:44.631Z,31.63
2023-04-19T17:13:13.399Z,31.63
2023-04-19T17:15:42.204Z,31.62
2023-04-19T17:18:11.086Z,31.61
2023-04-19T17:20:40.086Z,31.59
2023-04-19T17:23:08.791Z,31.57
2023-04-19T17:25:37.524Z,31.54
2023-04-19T17:28:06.962Z,31.52
2023-04-19T17:30:35.837Z,31.50
2023-04-19T17:33:04.549Z,31.49
2023-04-19T17:35:33.293Z,31.47
2023-04-19T17:38:02.076Z,31.46
2023-04-19T17:40:30.879Z,31.44
2023-04-19T17:42:59.739Z,31.44
2023-04-19T17:45:28.412Z,31.42
2023-04-19T17:47:57.244Z,31.43
2023-04-19T17:50:27.549Z,31.42
2023-04-19T17:52:56.931Z,31.42
2023-04-19T17:55:26.792Z,31.42
2023-04-19T17:57:55.448Z,31.42
2023-04-19T18:00:24.433Z,31.41
2023-04-19T18:02:53.564Z,31.41
2023-04-19T18:05:22.588Z,31.42
2023-04-19T18:07:51.450Z,31.39
2023-04-19T18:10:20.121Z,31.39
2023-04-19T18:12:48.827Z,31.38
2023-04-19T18:15:17.647Z,31.35
2023-04-19T18:17:46.364Z,31.33
2023-04-19T18:20:15.270Z,31.32
2023-04-19T18:22:44.103Z,31.29
2023-04-19T18:25:12.763Z,31.26
2023-04-19T18:27:41.446Z,31.24
2023-04-19T18:30:10.447Z,31.23
2023-04-19T18:32:39.434Z,31.22
2023-04-19T18:35:12.382Z,31.21
2023-04-19T18:37:41.299Z,31.19
2023-04-19T18:40:10.435Z,31.17
2023-04-19T18:42:39.126Z,31.16
2023-04-19T18:45:08.677Z,31.12
2023-04-19T18:47:37.376Z,31.10
2023-04-19T18:50:07.631Z,31.06
2023-04-19T18:52:40.069Z,31.04
2023-04-19T18:55:09.620Z,31.01
2023-04-19T18:57:39.868Z,30.97
2023-04-19T19:00:12.310Z,30.95
2023-04-19T19:02:41.639Z,30.95
2023-04-19T19:05:13.716Z,30.96
2023-04-19T19:07:43.343Z,30.95
2023-04-19T19:10:18.487Z,30.94
2023-04-19T19:12:50.217Z,30.96
2023-04-19T19:15:19.289Z,30.97
2023-04-19T19:17:49.730Z,30.97
2023-04-19T19:20:20.243Z,30.96
2023-04-19T19:22:49.242Z,30.96
2023-04-19T19:25:18.156Z,30.97
2023-04-19T19:28:06.177Z,30.95
2023-04-19T19:30:40.742Z,30.95
2023-04-19T19:33:09.688Z,30.93
2023-04-19T19:35:39.735Z,30.91
2023-04-19T19:38:08.918Z,30.89
2023-04-19T19:40:53.535Z,30.88
2023-04-19T19:43:26.218Z,30.86
2023-04-19T19:45:54.875Z,30.84
2023-04-19T19:48:25.213Z,30.83
2023-04-19T19:51:24.653Z,30.81
2023-04-19T19:53:43.120Z,30.79
2023-04-19T19:56:18.978Z,30.79
2023-04-19T19:58:51.903Z,30.78
2023-04-19T20:01:22.531Z,30.78
2023-04-19T20:03:52.299Z,30.77
2023-04-19T20:08:52.802Z,30.74
2023-04-19T20:11:21.772Z,30.72
2023-04-19T20:13:51.197Z,30.72
2023-04-19T20:16:20.815Z,30.69
2023-04-19T20:18:53.666Z,30.68
2023-04-19T20:21:22.581Z,30.65
2023-04-19T20:23:51.844Z,30.62
2023-04-19T20:26:20.627Z,30.59
2023-04-19T20:28:50.333Z,30.57
2023-04-19T20:31:19.196Z,30.54
2023-04-19T20:33:48.096Z,30.52
2023-04-19T20:36:17.527Z,30.50
2023-04-19T20:38:46.842Z,30.48
2023-04-19T20:41:15.270Z,30.44
2023-04-19T20:43:43.733Z,30.43
2023-04-19T20:46:12.611Z,30.41
2023-04-19T20:48:41.024Z,30.39
2023-04-19T20:51:09.438Z,30.39
2023-04-19T20:53:37.772Z,30.37
2023-04-19T20:56:06.692Z,30.34
2023-04-19T20:58:35.517Z,30.32
2023-04-19T21:01:03.886Z,30.31
2023-04-19T21:03:32.522Z,30.28
2023-04-19T21:06:01.265Z,30.26
2023-04-19T21:08:29.721Z,30.24
2023-04-19T21:10:58.104Z,30.22
2023-04-19T21:13:26.525Z,30.21
2023-04-19T21:15:54.977Z,30.20
2023-04-19T21:18:23.343Z,30.18
2023-04-19T21:20:51.650Z,30.17
2023-04-19T21:23:20.070Z,30.14
2023-04-19T21:25:48.486Z,30.14
2023-04-19T21:28:17.024Z,30.14
2023-04-19T21:30:45.448Z,30.11
2023-04-19T21:33:14.064Z,30.10
2023-04-19T21:35:42.436Z,30.09
2023-04-19T21:38:10.812Z,30.07
2023-04-19T21:40:39.171Z,30.07
2023-04-19T21:43:07.500Z,30.04
2023-04-19T21:45:35.853Z,30.02
2023-04-19T21:48:04.347Z,30.00
2023-04-19T21:50:32.733Z,29.96
2023-04-19T21:53:01.077Z,29.96
2023-04-19T21:55:29.511Z,29.95
2023-04-19T21:57:57.900Z,29.93
2023-04-19T22:00:26.378Z,29.92
2023-04-19T22:02:55.303Z,29.90
2023-04-19T22:05:23.752Z,29.87
2023-04-19T22:07:52.243Z,29.87
2023-04-19T22:10:21.106Z,29.84
2023-04-19T22:12:57.768Z,29.80
2023-04-19T22:15:28.837Z,29.78
2023-04-19T22:18:00.328Z,29.75
2023-04-19T22:20:28.723Z,29.71
2023-04-19T22:22:57.332Z,29.69
2023-04-19T22:25:25.779Z,29.66
2023-04-19T22:27:54.323Z,29.64
2023-04-19T22:30:22.769Z,29.61
2023-04-19T22:32:51.276Z,29.58
2023-04-19T22:35:22.573Z,29.57
2023-04-19T22:37:51.474Z,29.56
2023-04-19T22:40:19.867Z,29.53
2023-04-19T22:42:48.292Z,29.52
2023-04-19T22:45:16.804Z,29.50
2023-04-19T22:47:45.279Z,29.47
2023-04-19T22:50:13.740Z,29.45
2023-04-19T22:52:42.671Z,29.43
2023-04-19T22:55:11.817Z,29.42
2023-04-19T22:57:40.365Z,29.40
2023-04-19T23:00:11.569Z,29.41
2023-04-19T23:02:40.193Z,29.39
2023-04-19T23:05:09.185Z,29.39
2023-04-19T23:07:37.703Z,29.39
2023-04-19T23:10:06.615Z,29.39
2023-04-19T23:12:35.412Z,29.39
2023-04-19T23:15:04.829Z,29.39
2023-04-19T23:17:34.106Z,29.40
2023-04-19T23:20:02.544Z,29.40
2023-04-19T23:22:30.899Z,29.42
2023-04-19T23:24:59.350Z,29.43
2023-04-19T23:27:27.951Z,29.44
2023-04-19T23:29:56.505Z,29.45
2023-04-19T23:32:24.933Z,29.46
2023-04-19T23:34:53.373Z,29.48
2023-04-19T23:37:22.017Z,29.48
2023-04-19T23:39:50.333Z,29.50
2023-04-19T23:42:18.874Z,29.53
2023-04-19T23:44:47.208Z,29.54
2023-04-19T23:47:15.988Z,29.56
2023-04-19T23:49:44.346Z,29.58
2023-04-19T23:52:13.513Z,29.60
2023-04-19T23:54:42.034Z,29.62
2023-04-19T23:57:10.406Z,29.66
2023-04-19T23:59:38.743Z,29.68
